createdAt,value
2023-01-01T00:00:17.943Z,0.82
2023-01-01T00:03:19.549Z,0.80
2023-01-01T00:06:22.062Z,0.77
2023-01-01T00:09:46.498Z,0.70
2023-01-01T00:12:47.993Z,0.70
2023-01-01T00:15:49.447Z,0.90
2023-01-01T00:18:50.884Z,0.82
2023-01-01T00:21:52.410Z,0.60
2023-01-01T00:24:53.915Z,0.88
2023-01-01T00:27:55.748Z,0.85
2023-01-01T00:30:57.208Z,0.90
2023-01-01T00:33:58.714Z,0.70
2023-01-01T00:37:00.215Z,1.00
2023-01-01T00:40:01.695Z,1.05
2023-01-01T00:43:03.183Z,1.10
2023-01-01T00:46:05.600Z,1.02
2023-01-01T00:49:07.111Z,1.05
2023-01-01T00:52:08.867Z,0.80
2023-01-01T00:55:11.080Z,1.20
2023-01-01T00:58:12.617Z,1.00
2023-01-01T01:01:14.254Z,1.30
2023-01-01T01:04:15.734Z,1.15
2023-01-01T01:07:17.214Z,0.90
2023-01-01T01:10:21.341Z,1.00
2023-01-01T01:13:22.814Z,0.80
2023-01-01T01:16:30.975Z,0.98
2023-01-01T01:19:32.561Z,1.00
2023-01-01T01:22:34.756Z,1.05
2023-01-01T01:25:36.264Z,1.23
2023-01-01T01:28:40.347Z,0.90
2023-01-01T01:31:44.047Z,1.10
2023-01-01T01:34:45.660Z,1.15
2023-01-01T01:37:48.401Z,0.90
2023-01-01T01:40:49.924Z,1.08
2023-01-01T01:43:54.383Z,1.23
2023-01-01T01:46:57.361Z,1.10
2023-01-01T01:50:02.426Z,0.98
2023-01-01T01:53:03.939Z,1.08
2023-01-01T01:56:13.284Z,1.00
2023-01-01T01:59:17.299Z,1.23
2023-01-01T02:02:29.943Z,1.05
2023-01-01T02:05:33.557Z,1.17
2023-01-01T02:08:35.738Z,1.20
2023-01-01T02:11:37.437Z,1.10
2023-01-01T02:14:39.103Z,1.08
2023-01-01T02:18:13.211Z,1.10
2023-01-01T02:21:20.042Z,1.20
2023-01-01T02:24:37.245Z,1.30
2023-01-01T02:28:14.241Z,0.85
2023-01-01T02:31:23.314Z,0.98
2023-01-01T02:34:29.287Z,1.27
2023-01-01T02:37:30.894Z,1.30
2023-01-01T02:40:35.529Z,1.15
2023-01-01T02:43:37.992Z,1.20
2023-01-01T02:46:39.462Z,1.23
2023-01-01T02:50:13.449Z,1.08
2023-01-01T02:53:31.352Z,1.02
2023-01-01T02:56:46.019Z,0.90
2023-01-01T03:00:19.345Z,1.17
2023-01-01T03:03:57.750Z,1.20
2023-01-01T03:07:24.167Z,1.15
2023-01-01T03:10:46.901Z,1.00
2023-01-01T03:14:12.759Z,1.17
2023-01-01T03:17:29.658Z,1.10
2023-01-01T03:20:33.697Z,1.15
2023-01-01T03:23:38.878Z,1.10
2023-01-01T03:26:41.880Z,1.33
2023-01-01T03:29:44.534Z,1.00
2023-01-01T03:33:01.199Z,0.80
2023-01-01T03:36:27.215Z,1.10
2023-01-01T03:39:38.202Z,1.10
2023-01-01T03:42:45.086Z,1.23
2023-01-01T03:45:49.085Z,1.38
2023-01-01T03:49:02.642Z,1.00
2023-01-01T03:52:15.600Z,1.10
2023-01-01T03:55:30.963Z,1.20
2023-01-01T03:58:39.777Z,0.98
2023-01-01T04:01:49.866Z,1.08
2023-01-01T04:04:51.541Z,1.10
2023-01-01T04:07:54.642Z,1.00
2023-01-01T04:10:59.193Z,1.20
2023-01-01T04:14:01.019Z,1.00
2023-01-01T04:17:04.755Z,1.20
2023-01-01T04:20:07.730Z,1.10
2023-01-01T04:23:09.222Z,1.20
2023-01-01T04:26:14.853Z,1.20
2023-01-01T04:29:16.659Z,1.20
2023-01-01T04:32:18.203Z,1.20
2023-01-01T04:35:19.680Z,1.00
2023-01-01T04:38:21.150Z,1.10
2023-01-01T04:41:22.675Z,1.15
2023-01-01T04:44:24.189Z,1.20
2023-01-01T04:47:26.944Z,1.00
2023-01-01T04:50:28.447Z,1.30
2023-01-01T04:53:32.634Z,1.20
2023-01-01T04:56:34.468Z,1.23
2023-01-01T04:59:35.949Z,1.20
2023-01-01T05:02:37.533Z,1.10
2023-01-01T05:05:39.107Z,1.20
2023-01-01T05:08:43.212Z,1.33
2023-01-01T05:11:44.936Z,1.23
2023-01-01T05:14:46.376Z,1.20
2023-01-01T05:17:47.867Z,1.15
2023-01-01T05:20:49.322Z,1.20
2023-01-01T05:23:55.952Z,1.27
2023-01-01T05:26:57.722Z,1.20
2023-01-01T05:29:59.191Z,1.10
2023-01-01T05:33:00.669Z,1.40
2023-01-01T05:36:03.228Z,1.00
2023-01-01T05:39:09.545Z,1.25
2023-01-01T05:42:11.448Z,1.48
2023-01-01T05:45:12.935Z,1.20
2023-01-01T05:48:14.394Z,1.00
2023-01-01T05:51:20.106Z,0.85
2023-01-01T05:54:21.613Z,1.10
2023-01-01T05:57:23.111Z,1.10
2023-01-01T06:00:24.828Z,1.10
2023-01-01T06:03:26.314Z,1.40
2023-01-01T06:06:32.950Z,1.20
2023-01-01T06:09:34.426Z,1.20
2023-01-01T06:12:35.879Z,1.10
2023-01-01T06:15:37.357Z,1.10
2023-01-01T06:18:39.257Z,1.05
2023-01-01T06:21:40.788Z,1.20
2023-01-01T06:24:42.309Z,1.25
2023-01-01T06:27:43.787Z,1.00
2023-01-01T06:30:45.277Z,1.38
2023-01-01T06:33:47.404Z,1.10
2023-01-01T06:36:48.894Z,1.20
2023-01-01T06:39:50.562Z,1.10
2023-01-01T06:42:52.015Z,1.80
2023-01-01T06:46:20.357Z,1.70
2023-01-01T06:49:21.904Z,2.08
2023-01-01T06:52:23.355Z,1.77
2023-01-01T06:55:24.939Z,1.70
2023-01-01T06:58:26.633Z,1.70
2023-01-01T07:01:30.521Z,1.45
2023-01-01T07:04:32.103Z,1.58
2023-01-01T07:07:36.013Z,1.63
2023-01-01T07:10:37.722Z,1.40
2023-01-01T07:13:39.245Z,1.60
2023-01-01T07:16:40.798Z,1.40
2023-01-01T07:19:42.368Z,1.38
2023-01-01T07:22:43.825Z,1.55
2023-01-01T07:25:45.380Z,1.50
2023-01-01T07:28:46.830Z,1.20
2023-01-01T07:31:48.283Z,1.63
2023-01-01T07:34:50.888Z,1.48
2023-01-01T07:37:52.498Z,1.58
2023-01-01T07:40:54.552Z,1.20
2023-01-01T07:43:56.728Z,1.50
2023-01-01T07:47:05.885Z,1.20
2023-01-01T07:50:07.624Z,1.40
2023-01-01T07:53:09.437Z,1.30
2023-01-01T07:56:11.092Z,1.20
2023-01-01T07:59:18.473Z,1.42
2023-01-01T08:02:22.041Z,1.30
2023-01-01T08:05:26.957Z,1.77
2023-01-01T08:08:28.745Z,1.80
2023-01-01T08:11:30.330Z,1.75
2023-01-01T08:14:31.815Z,1.75
2023-01-01T08:17:33.291Z,2.10
2023-01-01T08:20:34.858Z,1.98
2023-01-01T08:23:37.050Z,1.70
2023-01-01T08:26:39.726Z,1.83
2023-01-01T08:29:42.193Z,1.88
2023-01-01T08:32:44.613Z,1.70
2023-01-01T08:35:52.008Z,1.90
2023-01-01T08:38:55.593Z,1.90
2023-01-01T08:41:57.082Z,1.73
2023-01-01T08:44:58.615Z,1.80
2023-01-01T08:48:00.494Z,1.80
2023-01-01T08:51:02.236Z,1.50
2023-01-01T08:54:04.188Z,1.63
2023-01-01T08:57:05.953Z,1.60
2023-01-01T09:00:09.629Z,2.13
2023-01-01T09:03:11.222Z,1.65
2023-01-01T09:06:12.996Z,1.40
2023-01-01T09:09:14.512Z,1.42
2023-01-01T09:12:16.803Z,1.40
2023-01-01T09:15:19.027Z,1.60
2023-01-01T09:18:20.611Z,1.60
2023-01-01T09:21:22.198Z,1.88
2023-01-01T09:24:24.032Z,1.77
2023-01-01T09:27:25.514Z,1.67
2023-01-01T09:30:27.090Z,1.60
2023-01-01T09:33:28.743Z,1.50
2023-01-01T09:36:31.767Z,1.52
2023-01-01T09:39:33.403Z,1.58
2023-01-01T09:42:51.343Z,1.92
2023-01-01T09:46:06.450Z,1.70
2023-01-01T09:49:41.257Z,1.50
2023-01-01T09:52:50.520Z,1.50
2023-01-01T09:56:00.385Z,1.30
2023-01-01T09:59:02.190Z,1.40
2023-01-01T10:02:25.354Z,1.50
2023-01-01T10:05:52.228Z,1.40
2023-01-01T10:09:47.343Z,1.60
2023-01-01T10:13:00.160Z,1.30
2023-01-01T10:16:10.108Z,1.20
2023-01-01T10:19:29.465Z,1.30
2023-01-01T10:22:39.876Z,1.60
2023-01-01T10:25:42.865Z,1.55
2023-01-01T10:28:53.456Z,1.58
2023-01-01T10:35:00.344Z,1.52
2023-01-01T10:38:04.506Z,1.30
2023-01-01T10:41:15.254Z,1.20
2023-01-01T10:44:32.650Z,1.20
2023-01-01T10:47:34.222Z,1.35
2023-01-01T10:50:44.776Z,1.02
2023-01-01T10:53:52.888Z,1.30
2023-01-01T10:56:54.458Z,1.52
2023-01-01T11:00:10.672Z,1.27
2023-01-01T11:03:21.044Z,1.30
2023-01-01T11:06:26.802Z,1.20
2023-01-01T11:09:36.794Z,1.40
2023-01-01T11:16:00.716Z,1.10
2023-01-01T11:19:05.275Z,1.23
2023-01-01T11:22:07.646Z,1.40
2023-01-01T11:25:22.725Z,1.00
2023-01-01T11:28:24.262Z,1.40
2023-01-01T11:31:30.294Z,1.20
2023-01-01T11:34:32.297Z,1.20
2023-01-01T11:37:38.856Z,1.27
2023-01-01T11:40:46.068Z,1.23
2023-01-01T11:43:47.932Z,1.02
2023-01-01T11:46:49.642Z,1.27
2023-01-01T11:50:19.484Z,1.10
2023-01-01T11:53:23.925Z,1.20
2023-01-01T11:56:25.452Z,1.15
2023-01-01T11:59:56.446Z,1.20
2023-01-01T12:03:01.968Z,1.20
2023-01-01T12:06:34.163Z,1.30
2023-01-01T12:09:46.369Z,1.08
2023-01-01T12:12:53.293Z,1.38
2023-01-01T12:16:00.957Z,1.20
2023-01-01T12:19:10.171Z,1.20
2023-01-01T12:22:19.905Z,1.30
2023-01-01T12:25:22.156Z,1.17
2023-01-01T12:28:35.577Z,1.02
2023-01-01T12:32:20.292Z,1.35
2023-01-01T12:35:27.449Z,1.20
2023-01-01T12:38:57.107Z,1.02
2023-01-01T12:42:27.003Z,1.20
2023-01-01T12:45:40.598Z,1.30
2023-01-01T12:49:16.168Z,1.10
2023-01-01T12:52:45.669Z,1.20
2023-01-01T12:56:01.352Z,1.20
2023-01-01T12:59:13.124Z,1.20
2023-01-01T13:02:21.965Z,1.15
2023-01-01T13:05:28.579Z,1.05
2023-01-01T13:08:31.974Z,1.35
2023-01-01T13:11:39.774Z,1.20
2023-01-01T13:14:46.795Z,1.02
2023-01-01T13:17:53.101Z,1.17
2023-01-01T13:20:57.598Z,1.13
2023-01-01T13:24:19.919Z,1.10
2023-01-01T13:27:56.948Z,1.23
2023-01-01T13:30:58.486Z,1.13
2023-01-01T13:34:31.514Z,0.93
2023-01-01T13:37:42.745Z,1.00
2023-01-01T13:40:51.291Z,1.38
2023-01-01T13:43:53.903Z,1.17
2023-01-01T13:47:24.430Z,1.27
2023-01-01T13:50:40.017Z,1.30
2023-01-01T13:54:09.440Z,1.20
2023-01-01T13:58:04.987Z,1.30
2023-01-01T14:01:12.421Z,1.20
2023-01-01T14:04:23.336Z,1.20
2023-01-01T14:07:53.060Z,1.25
2023-01-01T14:10:54.894Z,1.40
2023-01-01T14:13:58.316Z,1.50
2023-01-01T14:17:05.549Z,1.70
2023-01-01T14:20:08.527Z,1.40
2023-01-01T14:23:41.006Z,1.40
2023-01-01T14:26:42.968Z,1.23
2023-01-01T14:29:47.777Z,1.27
2023-01-01T14:32:56.892Z,1.40
2023-01-01T14:36:04.757Z,1.30
2023-01-01T14:39:27.643Z,1.58
2023-01-01T14:42:29.779Z,1.60
2023-01-01T14:45:34.390Z,1.50
2023-01-01T14:48:36.283Z,1.65
2023-01-01T14:51:44.691Z,1.30
2023-01-01T14:54:46.880Z,1.40
2023-01-01T14:57:56.028Z,1.50
2023-01-01T15:01:36.444Z,1.25
2023-01-01T15:04:38.484Z,1.50
2023-01-01T15:07:39.932Z,1.27
2023-01-01T15:10:41.511Z,1.50
2023-01-01T15:14:00.099Z,1.55
2023-01-01T15:17:07.211Z,1.50
2023-01-01T15:20:23.828Z,1.42
2023-01-01T15:23:25.324Z,1.98
2023-01-01T15:26:35.884Z,1.23
2023-01-01T15:29:45.260Z,1.23
2023-01-01T15:32:46.764Z,1.50
2023-01-01T15:35:53.768Z,1.35
2023-01-01T15:38:55.863Z,1.27
2023-01-01T15:41:57.316Z,1.40
2023-01-01T15:45:27.792Z,1.40
2023-01-01T15:48:40.897Z,1.35
2023-01-01T15:51:43.937Z,1.40
2023-01-01T15:54:46.285Z,1.33
2023-01-01T15:57:50.611Z,1.50
2023-01-01T16:00:57.920Z,1.30
2023-01-01T16:04:15.575Z,1.77
2023-01-01T16:07:20.958Z,1.60
2023-01-01T16:10:22.517Z,2.05
2023-01-01T16:13:24.076Z,2.10
2023-01-01T16:16:28.786Z,1.80
2023-01-01T16:19:31.528Z,2.17
2023-01-01T16:22:36.516Z,2.28
2023-01-01T16:25:38.782Z,2.70
2023-01-01T16:28:41.055Z,2.40
2023-01-01T16:31:43.509Z,2.50
2023-01-01T16:34:45.076Z,2.42
2023-01-01T16:37:46.638Z,1.95
2023-01-01T16:40:50.819Z,2.40
2023-01-01T16:43:52.480Z,2.47
2023-01-01T16:46:54.014Z,1.90
2023-01-01T16:49:55.517Z,2.20
2023-01-01T16:52:56.959Z,2.10
2023-01-01T16:55:58.721Z,2.85
2023-01-01T18:27:37.403Z,2.40
2023-01-01T18:30:38.919Z,2.25
2023-01-01T18:33:40.955Z,1.90
2023-01-01T18:36:43.441Z,1.90
2023-01-01T18:39:47.094Z,1.77
2023-01-01T18:43:01.268Z,2.00
2023-01-01T18:46:07.664Z,2.00
2023-01-01T18:49:09.741Z,1.95
2023-01-01T18:52:23.078Z,1.77
2023-01-01T18:55:27.861Z,1.92
2023-01-01T18:58:32.397Z,1.90
2023-01-01T19:01:34.042Z,1.90
2023-01-01T19:04:35.606Z,1.73
2023-01-01T19:07:37.073Z,1.92
2023-01-01T19:10:54.904Z,1.92
2023-01-01T19:14:04.880Z,2.15
2023-01-01T19:17:15.028Z,2.17
2023-01-01T19:20:22.233Z,2.13
2023-01-01T19:23:24.713Z,1.65
2023-01-01T19:26:32.041Z,2.00
2023-01-01T19:29:39.634Z,1.60
2023-01-01T19:32:42.237Z,1.70
2023-01-01T19:35:43.720Z,1.70
2023-01-01T19:38:45.313Z,1.45
2023-01-01T19:41:47.508Z,1.60
2023-01-01T19:44:48.957Z,1.52
2023-01-01T19:47:50.606Z,1.40
2023-01-01T19:50:52.253Z,1.65
2023-01-01T19:53:54.652Z,1.38
2023-01-01T19:56:57.116Z,1.38
2023-01-01T20:00:00.588Z,1.30
2023-01-01T20:03:34.273Z,1.23
2023-01-01T20:06:24.353Z,1.25
2023-01-01T20:09:25.817Z,1.50
2023-01-01T20:12:27.272Z,1.45
2023-01-01T20:15:28.739Z,1.30
2023-01-01T20:18:30.356Z,1.38
2023-01-01T20:21:50.320Z,1.48
2023-01-01T20:24:52.024Z,1.60
2023-01-01T20:28:11.894Z,1.33
2023-01-01T20:31:13.486Z,1.40
2023-01-01T20:34:15.099Z,1.65
2023-01-01T20:37:35.145Z,1.67
2023-01-01T23:58:59.366Z,1.30
